createdAt,value
2022-11-02T00:01:45.539Z,100745.72
2022-11-02T00:06:47.290Z,100744.75
2022-11-02T00:11:48.916Z,100756.75
2022-11-02T00:16:50.819Z,100757.16
2022-11-02T00:21:52.882Z,100769.16
2022-11-02T00:26:55.163Z,100769.09
2022-11-02T00:31:56.794Z,100771.50
2022-11-02T00:36:58.598Z,100777.16
2022-11-02T00:42:00.293Z,100776.81
2022-11-02T00:47:01.904Z,100778.25
2022-11-02T00:52:03.798Z,100783.75
2022-11-02T00:57:05.545Z,100775.22
2022-11-02T01:02:08.084Z,100782.44
2022-11-02T01:07:09.959Z,100769.97
2022-11-02T01:12:11.547Z,100785.50
2022-11-02T01:17:13.232Z,100776.44
2022-11-02T01:22:15.995Z,100783.28
2022-11-02T01:27:17.600Z,100773.53
2022-11-02T01:32:19.610Z,100766.63
2022-11-02T01:37:21.458Z,100772.13
2022-11-02T01:42:25.369Z,100757.72
2022-11-02T01:47:35.195Z,100768.09
2022-11-02T01:52:38.075Z,100768.47
2022-11-02T01:57:41.421Z,100773.84
2022-11-02T02:02:47.538Z,100776.19
2022-11-02T02:07:50.373Z,100772.03
2022-11-02T02:12:52.599Z,100772.50
2022-11-02T02:18:01.276Z,100769.22
2022-11-02T02:23:13.930Z,100763.22
2022-11-02T02:28:25.206Z,100766.63
2022-11-02T02:33:33.391Z,100771.78
2022-11-02T02:38:44.671Z,100769.09
2022-11-02T02:43:50.798Z,100774.81
2022-11-02T02:48:54.628Z,100760.28
2022-11-02T02:54:03.453Z,100761.75
2022-11-02T02:59:08.105Z,100758.84
2022-11-02T03:04:12.682Z,100771.28
2022-11-02T03:09:23.883Z,100778.00
2022-11-02T03:14:40.423Z,100768.63
2022-11-02T03:19:55.648Z,100764.31
2022-11-02T03:25:17.799Z,100766.88
2022-11-02T03:30:23.287Z,100768.69
2022-11-02T03:35:34.829Z,100773.44
2022-11-02T03:40:44.331Z,100775.03
2022-11-02T03:45:58.185Z,100784.09
2022-11-02T03:51:05.290Z,100788.97
2022-11-02T03:56:10.229Z,100787.00
2022-11-02T04:01:15.156Z,100792.59
2022-11-02T04:06:17.860Z,100791.84
2022-11-02T04:11:38.326Z,100781.59
2022-11-02T04:16:44.207Z,100786.97
2022-11-02T04:22:17.189Z,100780.84
2022-11-02T04:27:22.770Z,100779.66
2022-11-02T04:32:44.784Z,100789.16
2022-11-02T04:38:08.735Z,100775.50
2022-11-02T04:43:13.655Z,100773.06
2022-11-02T04:48:15.948Z,100768.41
2022-11-02T04:53:17.856Z,100768.66
2022-11-02T04:58:20.292Z,100781.09
2022-11-02T05:03:22.696Z,100767.13
2022-11-02T05:08:24.406Z,100776.81
2022-11-02T05:13:26.879Z,100775.03
2022-11-02T05:18:31.826Z,100769.06
2022-11-02T05:23:33.540Z,100781.63
2022-11-02T05:28:36.122Z,100776.59
2022-11-02T05:33:39.741Z,100796.69
2022-11-02T05:38:55.625Z,100792.19
2022-11-02T05:43:58.028Z,100785.13
2022-11-02T05:49:02.693Z,100782.03
2022-11-02T05:54:04.540Z,100780.72
2022-11-02T05:59:06.191Z,100783.75
2022-11-02T06:04:08.029Z,100773.66
2022-11-02T06:09:09.732Z,100795.09
2022-11-02T06:14:11.452Z,100797.28
2022-11-02T06:19:16.131Z,100800.06
2022-11-02T06:24:17.841Z,100805.69
2022-11-02T06:29:19.454Z,100800.06
2022-11-02T06:34:21.033Z,100824.88
2022-11-02T06:39:22.811Z,100817.28
2022-11-02T06:44:24.488Z,100818.19
2022-11-02T06:49:26.121Z,100818.94
2022-11-02T06:54:27.715Z,100815.44
2022-11-02T06:59:29.310Z,100819.00
2022-11-02T07:04:30.931Z,100820.47
2022-11-02T07:09:35.931Z,100830.88
2022-11-02T07:14:37.545Z,100822.91
2022-11-02T07:19:39.181Z,100831.19
2022-11-02T07:24:40.844Z,100832.59
2022-11-02T07:29:42.485Z,100835.41
2022-11-02T07:34:44.067Z,100827.59
2022-11-02T07:39:45.673Z,100811.09
2022-11-02T07:44:47.317Z,100813.75
2022-11-02T07:49:49.137Z,100806.59
2022-11-02T07:54:50.762Z,100800.47
2022-11-02T07:59:52.349Z,100807.19
2022-11-02T08:04:53.933Z,100797.63
2022-11-02T08:09:55.556Z,100805.03
2022-11-02T08:14:59.009Z,100812.97
2022-11-02T08:20:03.052Z,100829.66
2022-11-02T08:25:05.513Z,100825.63
2022-11-02T08:30:08.014Z,100836.47
2022-11-02T08:35:09.706Z,100820.06
2022-11-02T08:40:11.864Z,100809.16
2022-11-02T08:45:13.539Z,100819.53
2022-11-02T08:50:15.215Z,100818.91
2022-11-02T08:55:17.118Z,100814.44
2022-11-02T09:00:20.584Z,100829.06
2022-11-02T09:05:22.223Z,100820.63
2022-11-02T09:10:23.888Z,100822.75
2022-11-02T09:15:25.502Z,100827.66
2022-11-02T09:20:27.216Z,100839.59
2022-11-02T09:25:28.891Z,100834.56
2022-11-02T09:30:30.558Z,100827.88
2022-11-02T09:35:34.544Z,100846.91
2022-11-02T09:40:59.339Z,100854.91
2022-11-02T09:46:08.360Z,100863.28
2022-11-02T09:51:19.002Z,100884.41
2022-11-02T09:56:20.876Z,100880.34
2022-11-02T10:01:34.846Z,100878.69
2022-11-02T10:06:37.995Z,100898.66
2022-11-02T10:11:55.258Z,100908.75
2022-11-02T10:16:59.520Z,100891.06
2022-11-02T10:22:01.283Z,100882.06
2022-11-02T10:27:13.875Z,100879.59
2022-11-02T10:32:16.341Z,100875.63
2022-11-02T10:37:37.487Z,100874.00
2022-11-02T10:43:01.092Z,100866.84
2022-11-02T10:48:38.338Z,100861.25
2022-11-02T10:53:42.728Z,100861.25
2022-11-02T10:58:51.400Z,100860.06
2022-11-02T11:04:03.030Z,100852.56
2022-11-02T11:09:20.317Z,100866.81
2022-11-02T11:19:52.609Z,100861.91
2022-11-02T11:25:27.644Z,100863.44
2022-11-02T11:35:56.664Z,100878.41
2022-11-02T11:40:59.652Z,100889.22
2022-11-02T11:46:06.478Z,100884.28
2022-11-02T11:51:31.821Z,100881.16
2022-11-02T11:56:33.988Z,100867.88
2022-11-02T12:01:40.024Z,100864.91
2022-11-02T12:07:15.777Z,100865.03
2022-11-02T12:12:30.487Z,100875.47
2022-11-02T12:17:55.461Z,100868.69
2022-11-02T12:23:15.309Z,100866.06
2022-11-02T12:28:50.758Z,100859.56
2022-11-02T12:34:10.669Z,100861.81
2022-11-02T12:39:35.460Z,100849.44
2022-11-02T12:45:01.925Z,100864.88
2022-11-02T12:50:24.531Z,100858.13
2022-11-02T12:55:37.302Z,100860.03
2022-11-02T13:00:43.057Z,100867.59
2022-11-02T13:05:54.230Z,100853.44
2022-11-02T13:10:59.280Z,100855.09
2022-11-02T13:16:01.436Z,100853.94
2022-11-02T13:21:04.308Z,100846.47
2022-11-02T13:26:27.517Z,100867.34
2022-11-02T13:31:44.902Z,100865.41
2022-11-02T13:36:47.030Z,100863.34
2022-11-02T13:42:25.643Z,100868.72
2022-11-02T13:47:33.225Z,100870.72
2022-11-02T13:52:40.983Z,100863.88
2022-11-02T13:58:03.127Z,100863.16
2022-11-02T14:03:08.132Z,100862.09
2022-11-02T14:08:11.550Z,100870.19
2022-11-02T14:13:13.822Z,100859.81
2022-11-02T14:18:27.084Z,100863.53
2022-11-02T14:23:35.319Z,100861.91
2022-11-02T14:28:43.650Z,100856.31
2022-11-02T14:34:08.400Z,100855.59
2022-11-02T14:39:12.731Z,100856.28
2022-11-02T14:44:24.139Z,100852.53
2022-11-02T14:49:28.326Z,100843.66
2022-11-02T14:54:32.495Z,100849.88
2022-11-02T14:59:38.374Z,100851.19
2022-11-02T15:04:46.338Z,100863.81
2022-11-02T15:09:59.216Z,100860.91
2022-11-02T15:15:05.952Z,100856.25
2022-11-02T15:20:16.708Z,100858.03
2022-11-02T15:25:24.407Z,100868.78
2022-11-02T15:30:28.558Z,100870.59
2022-11-02T15:35:34.895Z,100871.25
2022-11-02T15:40:46.685Z,100881.56
2022-11-02T15:46:14.018Z,100890.22
2022-11-02T15:51:19.708Z,100899.13
2022-11-02T15:56:45.938Z,100908.00
2022-11-02T16:02:02.652Z,100905.03
2022-11-02T16:07:05.581Z,100909.59
2022-11-02T16:12:21.567Z,100919.88
2022-11-02T16:17:24.686Z,100919.97
2022-11-02T16:22:26.947Z,100922.41
2022-11-02T16:27:28.555Z,100937.25
2022-11-02T16:32:30.284Z,100935.25
2022-11-02T16:37:32.424Z,100930.16
2022-11-02T16:42:34.034Z,100946.38
2022-11-02T16:47:40.595Z,100948.78
2022-11-02T16:52:42.217Z,100954.28
2022-11-02T16:57:45.134Z,100956.81
2022-11-02T17:02:47.437Z,100971.03
2022-11-02T17:08:01.233Z,100973.38
2022-11-02T17:13:07.187Z,100981.69
2022-11-02T17:18:09.154Z,100991.97
2022-11-02T17:23:31.849Z,100974.16
2022-11-02T17:28:33.373Z,100971.84
2022-11-02T17:33:35.135Z,100976.53
2022-11-02T17:38:36.779Z,100975.13
2022-11-02T17:43:38.377Z,100976.78
2022-11-02T17:48:40.075Z,100979.56
2022-11-02T17:53:42.175Z,100981.91
2022-11-02T17:58:43.777Z,100981.31
2022-11-02T18:03:45.419Z,100978.91
2022-11-02T18:09:05.662Z,100979.69
2022-11-02T18:14:13.399Z,100979.31
2022-11-02T18:19:16.757Z,100976.41
2022-11-02T18:24:18.935Z,100973.03
2022-11-02T18:29:20.557Z,100977.00
2022-11-02T18:34:22.148Z,100974.91
2022-11-02T18:39:23.761Z,100973.94
2022-11-02T18:44:25.349Z,100971.88
2022-11-02T18:49:26.976Z,100977.41
2022-11-02T18:54:28.573Z,100977.91
2022-11-02T18:59:30.243Z,100980.63
2022-11-02T19:04:32.500Z,100982.09
2022-11-02T19:09:35.878Z,100988.59
2022-11-02T19:14:42.360Z,100986.13
2022-11-02T19:19:45.487Z,100984.91
2022-11-02T19:24:47.364Z,100981.25
2022-11-02T19:29:49.236Z,100973.06
2022-11-02T19:34:50.811Z,100975.88
2022-11-02T19:39:52.389Z,100972.31
2022-11-02T19:44:53.955Z,100964.69
2022-11-02T19:49:55.604Z,100973.63
2022-11-02T19:54:57.300Z,100984.56
2022-11-02T19:59:58.917Z,100987.59
2022-11-02T20:05:00.547Z,100985.75
2022-11-02T20:10:02.156Z,100983.31
2022-11-02T20:15:04.545Z,100984.56
2022-11-02T20:20:06.760Z,100992.13
2022-11-02T20:25:08.861Z,100993.31
2022-11-02T20:30:11.604Z,100990.63
2022-11-02T20:35:13.951Z,100996.50
2022-11-02T20:40:16.009Z,101010.41
2022-11-02T20:45:18.399Z,101013.84
2022-11-02T20:50:24.803Z,101005.03
2022-11-02T20:55:27.584Z,101014.09
2022-11-02T21:00:29.240Z,101020.31
2022-11-02T21:05:30.957Z,101016.16
2022-11-02T21:10:32.563Z,101020.91
2022-11-02T21:15:37.194Z,101027.13
2022-11-02T21:20:38.964Z,101028.72
2022-11-02T21:25:40.632Z,101032.94
2022-11-02T21:30:42.222Z,101027.94
2022-11-02T21:35:43.791Z,101030.06
2022-11-02T21:40:45.381Z,101028.91
2022-11-02T21:45:58.564Z,101036.47
2022-11-02T21:51:12.914Z,101045.34
2022-11-02T21:56:19.824Z,101042.84
2022-11-02T22:01:45.188Z,101044.41
2022-11-02T22:06:47.751Z,101044.78
2022-11-02T22:12:09.330Z,101034.50
2022-11-02T22:17:21.853Z,101029.81
2022-11-02T22:22:30.225Z,101023.63
2022-11-02T22:27:31.858Z,101024.72
2022-11-02T22:32:33.897Z,101012.63
2022-11-02T22:37:53.811Z,101017.66
2022-11-02T22:42:55.957Z,101021.88
2022-11-02T22:47:57.550Z,101018.13
2022-11-02T22:52:59.124Z,101016.34
2022-11-02T22:58:00.786Z,101025.69
2022-11-02T23:03:02.541Z,101024.94
2022-11-02T23:08:04.496Z,101017.97
2022-11-02T23:13:06.418Z,101028.81
2022-11-02T23:18:08.345Z,101039.41
2022-11-02T23:23:28.280Z,101030.72
2022-11-02T23:28:48.448Z,101036.22
2022-11-02T23:33:50.034Z,101029.31
2022-11-02T23:39:09.957Z,101032.00
2022-11-02T23:44:12.164Z,101031.13
2022-11-02T23:49:16.810Z,101034.47
2022-11-02T23:54:36.661Z,101022.25
2022-11-02T23:59:38.654Z,101011.00
